OIMC 
Sarakhs Airport
Sarakhs, Iran 
ICAOIATAStatus
OIMCCKTOperational
LatitudeLongitude
36° 30' 4" N61° 3' 53" E
36.50120261.064899
Local Time (DST+5)UTC (GMT+4)
04-23-2014 02:59 pm04-23-2014 10:29
Sunrise-SunsetLocalUTC
Begin Civil Twilight05:12 am00:42
Sunrise05:40 am01:10
Sunset07:07 pm14:37
End Civil Twilight07:35 pm15:05

Current Weather

METARObservedFlight Conditions

OIMC 231000Z 00000KT 9999 FEW030CB SCT035 OVC100 31/06 Q1010

Wed, Apr 23, 2014 @ 10:00 UTC(Z)

(29 Minutes ago)

VFR

(Visual Flight Rules)

WindVisibilityCloudsConditions
Calm
10 km or more
  • Few at 3,000' AGL
  • Scattered at 3,500' AGL
  • Overcast at 10,000' AGL
  • No significant weather
TemperaturesReadingsPrecipitation
Current Temp31°C (88°F)
Dewpoint6°C (43°F)
Humidity21%
Altimeter29.82"Hg
Sea Level Pressure1010mb
Field Elevation944.88'
None Recorded

Additional weather within a 185.2km radius of OIMC

Location METAR
OIMM

130.8km W (257°)

29 minutes ago
UTAM

144.5km N (030°)

29 minutes ago
VFR VFR    MVFR MVFR    IFR IFR    LIFR LIFR    Unknown Unknown

Previous 24 hour Weather Graphs

  Loading...

CheckWX.com is intended as a tool to help pilots better visualize weather data.   It is not intended as a substitute for an official weather briefing obtained from a Flight Service Station.
CheckWX.com does not meet the FAA requirements for an official pre-flight weather briefing.   Therefore, it's important that pilots still call and obtain an official FSS pre-flight weather briefing.